sensor_id;sensor_type;location;lat;lon;timestamp;P1;durP1;ratioP1;P2;durP2;ratioP2
6117;SDS011;3089;48.202;11.510;2023-11-22T00:00:33;8.47;;;5.10;;
6117;SDS011;3089;48.202;11.510;2023-11-22T00:03:01;8.53;;;4.87;;
6117;SDS011;3089;48.202;11.510;2023-11-22T00:05:29;12.40;;;5.00;;
6117;SDS011;3089;48.202;11.510;2023-11-22T00:07:57;8.57;;;4.73;;
6117;SDS011;3089;48.202;11.510;2023-11-22T00:10:26;8.07;;;4.40;;
6117;SDS011;3089;48.202;11.510;2023-11-22T00:12:54;10.27;;;5.27;;
6117;SDS011;3089;48.202;11.510;2023-11-22T00:15:22;9.47;;;4.57;;
6117;SDS011;3089;48.202;11.510;2023-11-22T00:17:50;9.67;;;4.53;;
6117;SDS011;3089;48.202;11.510;2023-11-22T00:20:19;10.13;;;4.60;;
6117;SDS011;3089;48.202;11.510;2023-11-22T00:22:47;9.63;;;4.50;;
6117;SDS011;3089;48.202;11.510;2023-11-22T00:25:16;10.97;;;5.30;;
6117;SDS011;3089;48.202;11.510;2023-11-22T00:27:46;10.10;;;4.93;;
6117;SDS011;3089;48.202;11.510;2023-11-22T00:30:14;10.60;;;5.50;;
6117;SDS011;3089;48.202;11.510;2023-11-22T00:32:42;10.03;;;4.63;;
6117;SDS011;3089;48.202;11.510;2023-11-22T00:35:10;10.30;;;4.93;;
6117;SDS011;3089;48.202;11.510;2023-11-22T00:37:38;10.20;;;4.80;;
6117;SDS011;3089;48.202;11.510;2023-11-22T00:40:07;9.47;;;5.17;;
6117;SDS011;3089;48.202;11.510;2023-11-22T00:42:38;10.33;;;4.83;;
6117;SDS011;3089;48.202;11.510;2023-11-22T00:45:10;9.20;;;4.70;;
6117;SDS011;3089;48.202;11.510;2023-11-22T00:47:38;8.27;;;5.07;;
6117;SDS011;3089;48.202;11.510;2023-11-22T00:50:06;9.70;;;5.40;;
6117;SDS011;3089;48.202;11.510;2023-11-22T00:52:34;8.77;;;4.40;;
6117;SDS011;3089;48.202;11.510;2023-11-22T00:55:03;11.60;;;5.53;;
6117;SDS011;3089;48.202;11.510;2023-11-22T00:57:31;11.10;;;5.93;;
6117;SDS011;3089;48.202;11.510;2023-11-22T00:59:59;10.17;;;5.53;;
6117;SDS011;3089;48.202;11.510;2023-11-22T01:02:31;12.03;;;5.70;;
6117;SDS011;3089;48.202;11.510;2023-11-22T01:04:59;11.77;;;4.90;;
6117;SDS011;3089;48.202;11.510;2023-11-22T01:07:27;13.10;;;6.30;;
6117;SDS011;3089;48.202;11.510;2023-11-22T01:09:55;13.10;;;6.63;;
6117;SDS011;3089;48.202;11.510;2023-11-22T01:12:23;12.90;;;6.37;;
6117;SDS011;3089;48.202;11.510;2023-11-22T01:14:51;10.40;;;5.63;;
6117;SDS011;3089;48.202;11.510;2023-11-22T01:17:19;10.17;;;5.43;;
6117;SDS011;3089;48.202;11.510;2023-11-22T01:19:48;10.43;;;6.00;;
6117;SDS011;3089;48.202;11.510;2023-11-22T01:22:16;11.00;;;6.30;;
6117;SDS011;3089;48.202;11.510;2023-11-22T01:24:44;19.73;;;6.07;;
6117;SDS011;3089;48.202;11.510;2023-11-22T01:27:12;9.97;;;5.37;;
6117;SDS011;3089;48.202;11.510;2023-11-22T01:29:40;9.20;;;5.87;;
6117;SDS011;3089;48.202;11.510;2023-11-22T01:32:08;12.40;;;5.97;;
6117;SDS011;3089;48.202;11.510;2023-11-22T01:34:36;12.20;;;5.63;;
6117;SDS011;3089;48.202;11.510;2023-11-22T01:37:06;11.30;;;6.23;;
6117;SDS011;3089;48.202;11.510;2023-11-22T01:39:34;16.07;;;6.20;;
6117;SDS011;3089;48.202;11.510;2023-11-22T01:42:02;12.90;;;6.30;;
6117;SDS011;3089;48.202;11.510;2023-11-22T01:44:32;10.90;;;6.00;;
6117;SDS011;3089;48.202;11.510;2023-11-22T01:47:00;11.53;;;6.73;;
6117;SDS011;3089;48.202;11.510;2023-11-22T01:49:29;12.07;;;5.33;;
6117;SDS011;3089;48.202;11.510;2023-11-22T01:51:57;10.07;;;4.27;;
6117;SDS011;3089;48.202;11.510;2023-11-22T01:54:26;10.57;;;4.43;;
6117;SDS011;3089;48.202;11.510;2023-11-22T01:56:55;9.97;;;3.87;;
6117;SDS011;3089;48.202;11.510;2023-11-22T01:59:24;5.33;;;2.97;;
6117;SDS011;3089;48.202;11.510;2023-11-22T02:01:53;6.97;;;3.40;;
6117;SDS011;3089;48.202;11.510;2023-11-22T02:04:21;4.73;;;2.93;;
6117;SDS011;3089;48.202;11.510;2023-11-22T02:06:50;5.17;;;2.50;;
6117;SDS011;3089;48.202;11.510;2023-11-22T02:09:18;4.70;;;2.40;;
6117;SDS011;3089;48.202;11.510;2023-11-22T02:11:47;4.67;;;2.40;;
6117;SDS011;3089;48.202;11.510;2023-11-22T02:14:16;6.00;;;2.47;;
6117;SDS011;3089;48.202;11.510;2023-11-22T02:16:44;4.90;;;2.40;;
6117;SDS011;3089;48.202;11.510;2023-11-22T02:19:14;5.40;;;2.57;;
6117;SDS011;3089;48.202;11.510;2023-11-22T02:21:43;4.03;;;2.27;;
6117;SDS011;3089;48.202;11.510;2023-11-22T02:24:12;6.50;;;2.53;;
6117;SDS011;3089;48.202;11.510;2023-11-22T02:26:43;4.10;;;1.90;;
6117;SDS011;3089;48.202;11.510;2023-11-22T02:29:12;4.50;;;1.97;;
6117;SDS011;3089;48.202;11.510;2023-11-22T02:31:41;6.00;;;2.30;;
6117;SDS011;3089;48.202;11.510;2023-11-22T02:34:10;3.53;;;1.80;;
6117;SDS011;3089;48.202;11.510;2023-11-22T02:36:38;4.40;;;2.13;;
6117;SDS011;3089;48.202;11.510;2023-11-22T02:39:08;3.70;;;1.70;;
6117;SDS011;3089;48.202;11.510;2023-11-22T02:41:37;3.33;;;1.57;;
6117;SDS011;3089;48.202;11.510;2023-11-22T02:44:05;3.60;;;1.63;;
6117;SDS011;3089;48.202;11.510;2023-11-22T02:46:33;2.93;;;1.50;;
6117;SDS011;3089;48.202;11.510;2023-11-22T02:49:01;3.63;;;1.83;;
6117;SDS011;3089;48.202;11.510;2023-11-22T02:51:30;3.80;;;1.67;;
6117;SDS011;3089;48.202;11.510;2023-11-22T02:53:58;3.80;;;1.80;;
6117;SDS011;3089;48.202;11.510;2023-11-22T02:56:26;3.97;;;2.00;;
6117;SDS011;3089;48.202;11.510;2023-11-22T02:58:55;3.40;;;1.80;;
6117;SDS011;3089;48.202;11.510;2023-11-22T03:01:23;3.50;;;1.60;;
6117;SDS011;3089;48.202;11.510;2023-11-22T03:03:52;2.87;;;1.50;;
6117;SDS011;3089;48.202;11.510;2023-11-22T03:06:20;3.03;;;1.43;;
6117;SDS011;3089;48.202;11.510;2023-11-22T03:08:48;3.27;;;1.33;;
6117;SDS011;3089;48.202;11.510;2023-11-22T03:11:16;4.23;;;1.70;;
6117;SDS011;3089;48.202;11.510;2023-11-22T03:13:45;4.60;;;2.07;;
6117;SDS011;3089;48.202;11.510;2023-11-22T03:16:16;3.57;;;1.80;;
6117;SDS011;3089;48.202;11.510;2023-11-22T03:18:44;4.60;;;2.13;;
6117;SDS011;3089;48.202;11.510;2023-11-22T03:21:12;3.70;;;1.90;;
6117;SDS011;3089;48.202;11.510;2023-11-22T03:23:40;5.77;;;2.40;;
6117;SDS011;3089;48.202;11.510;2023-11-22T03:26:08;3.30;;;1.80;;
6117;SDS011;3089;48.202;11.510;2023-11-22T03:28:36;3.93;;;1.60;;
6117;SDS011;3089;48.202;11.510;2023-11-22T03:31:05;3.33;;;1.73;;
6117;SDS011;3089;48.202;11.510;2023-11-22T03:33:35;4.23;;;1.83;;
6117;SDS011;3089;48.202;11.510;2023-11-22T03:36:04;4.93;;;1.87;;
6117;SDS011;3089;48.202;11.510;2023-11-22T03:38:32;4.40;;;2.00;;
6117;SDS011;3089;48.202;11.510;2023-11-22T03:41:00;4.10;;;1.63;;
6117;SDS011;3089;48.202;11.510;2023-11-22T03:43:28;7.63;;;2.30;;
6117;SDS011;3089;48.202;11.510;2023-11-22T03:45:56;3.30;;;1.63;;
6117;SDS011;3089;48.202;11.510;2023-11-22T03:48:24;4.13;;;1.90;;
6117;SDS011;3089;48.202;11.510;2023-11-22T03:50:54;4.17;;;1.90;;
6117;SDS011;3089;48.202;11.510;2023-11-22T03:53:21;5.30;;;2.53;;
6117;SDS011;3089;48.202;11.510;2023-11-22T03:55:49;3.50;;;1.77;;
6117;SDS011;3089;48.202;11.510;2023-11-22T03:58:17;4.50;;;1.90;;
6117;SDS011;3089;48.202;11.510;2023-11-22T04:00:46;4.50;;;1.93;;
6117;SDS011;3089;48.202;11.510;2023-11-22T04:03:14;3.80;;;1.70;;
6117;SDS011;3089;48.202;11.510;2023-11-22T04:05:43;3.60;;;1.90;;
6117;SDS011;3089;48.202;11.510;2023-11-22T04:08:13;4.37;;;2.07;;
6117;SDS011;3089;48.202;11.510;2023-11-22T04:10:41;5.37;;;2.63;;
6117;SDS011;3089;48.202;11.510;2023-11-22T04:13:09;4.47;;;1.77;;
6117;SDS011;3089;48.202;11.510;2023-11-22T04:15:37;3.97;;;2.07;;
6117;SDS011;3089;48.202;11.510;2023-11-22T04:18:05;4.40;;;2.00;;
6117;SDS011;3089;48.202;11.510;2023-11-22T04:20:34;3.63;;;1.87;;
6117;SDS011;3089;48.202;11.510;2023-11-22T04:23:01;4.63;;;2.30;;
6117;SDS011;3089;48.202;11.510;2023-11-22T04:25:31;3.70;;;1.90;;
6117;SDS011;3089;48.202;11.510;2023-11-22T04:28:00;5.83;;;2.27;;
6117;SDS011;3089;48.202;11.510;2023-11-22T04:30:28;4.10;;;2.00;;
6117;SDS011;3089;48.202;11.510;2023-11-22T04:32:56;4.20;;;2.17;;
6117;SDS011;3089;48.202;11.510;2023-11-22T04:35:24;3.00;;;1.67;;
6117;SDS011;3089;48.202;11.510;2023-11-22T04:37:52;3.50;;;1.90;;
6117;SDS011;3089;48.202;11.510;2023-11-22T04:40:21;3.73;;;1.60;;
6117;SDS011;3089;48.202;11.510;2023-11-22T04:42:50;3.53;;;1.43;;
6117;SDS011;3089;48.202;11.510;2023-11-22T04:45:18;3.20;;;1.53;;
6117;SDS011;3089;48.202;11.510;2023-11-22T04:47:46;4.57;;;2.03;;
6117;SDS011;3089;48.202;11.510;2023-11-22T04:50:14;4.00;;;1.70;;
6117;SDS011;3089;48.202;11.510;2023-11-22T04:52:42;4.03;;;1.63;;
6117;SDS011;3089;48.202;11.510;2023-11-22T04:55:10;3.00;;;1.40;;
6117;SDS011;3089;48.202;11.510;2023-11-22T04:57:38;3.33;;;1.53;;
6117;SDS011;3089;48.202;11.510;2023-11-22T05:00:08;5.73;;;1.63;;
6117;SDS011;3089;48.202;11.510;2023-11-22T05:02:37;4.10;;;1.57;;
6117;SDS011;3089;48.202;11.510;2023-11-22T05:05:06;3.20;;;1.60;;
6117;SDS011;3089;48.202;11.510;2023-11-22T05:07:36;5.03;;;1.70;;
6117;SDS011;3089;48.202;11.510;2023-11-22T05:10:04;3.30;;;1.40;;
6117;SDS011;3089;48.202;11.510;2023-11-22T05:12:34;3.23;;;1.43;;
6117;SDS011;3089;48.202;11.510;2023-11-22T05:15:02;3.80;;;1.83;;
6117;SDS011;3089;48.202;11.510;2023-11-22T05:17:32;3.13;;;1.53;;
6117;SDS011;3089;48.202;11.510;2023-11-22T05:20:00;4.10;;;1.97;;
6117;SDS011;3089;48.202;11.510;2023-11-22T05:22:28;3.00;;;1.40;;
6117;SDS011;3089;48.202;11.510;2023-11-22T05:24:56;4.30;;;1.67;;
6117;SDS011;3089;48.202;11.510;2023-11-22T05:27:24;3.53;;;1.47;;
6117;SDS011;3089;48.202;11.510;2023-11-22T05:29:51;3.17;;;1.43;;
6117;SDS011;3089;48.202;11.510;2023-11-22T05:32:21;4.43;;;1.77;;
6117;SDS011;3089;48.202;11.510;2023-11-22T05:34:50;3.17;;;1.33;;
6117;SDS011;3089;48.202;11.510;2023-11-22T05:37:18;3.43;;;1.47;;
6117;SDS011;3089;48.202;11.510;2023-11-22T05:39:47;4.37;;;1.63;;
6117;SDS011;3089;48.202;11.510;2023-11-22T05:42:15;3.23;;;1.47;;
6117;SDS011;3089;48.202;11.510;2023-11-22T05:44:44;3.37;;;1.53;;
6117;SDS011;3089;48.202;11.510;2023-11-22T05:47:12;4.20;;;1.63;;
6117;SDS011;3089;48.202;11.510;2023-11-22T05:49:40;3.40;;;1.63;;
6117;SDS011;3089;48.202;11.510;2023-11-22T05:52:09;3.87;;;1.77;;
6117;SDS011;3089;48.202;11.510;2023-11-22T05:54:37;3.43;;;1.50;;
6117;SDS011;3089;48.202;11.510;2023-11-22T05:57:05;4.20;;;2.00;;
6117;SDS011;3089;48.202;11.510;2023-11-22T05:59:33;3.03;;;1.33;;
6117;SDS011;3089;48.202;11.510;2023-11-22T06:02:01;4.70;;;1.50;;
6117;SDS011;3089;48.202;11.510;2023-11-22T06:04:29;3.80;;;1.67;;
6117;SDS011;3089;48.202;11.510;2023-11-22T06:06:57;3.53;;;1.60;;
6117;SDS011;3089;48.202;11.510;2023-11-22T06:09:27;3.53;;;1.70;;
6117;SDS011;3089;48.202;11.510;2023-11-22T06:11:54;4.30;;;1.90;;
6117;SDS011;3089;48.202;11.510;2023-11-22T06:14:22;4.53;;;1.97;;
6117;SDS011;3089;48.202;11.510;2023-11-22T06:16:50;3.50;;;1.70;;
6117;SDS011;3089;48.202;11.510;2023-11-22T06:19:18;5.13;;;2.27;;
6117;SDS011;3089;48.202;11.510;2023-11-22T06:21:47;4.60;;;2.30;;
6117;SDS011;3089;48.202;11.510;2023-11-22T06:24:14;4.73;;;2.07;;
6117;SDS011;3089;48.202;11.510;2023-11-22T06:26:44;4.80;;;2.60;;
6117;SDS011;3089;48.202;11.510;2023-11-22T06:29:13;4.53;;;2.30;;
6117;SDS011;3089;48.202;11.510;2023-11-22T06:31:41;4.27;;;1.90;;
6117;SDS011;3089;48.202;11.510;2023-11-22T06:34:09;5.10;;;1.87;;
6117;SDS011;3089;48.202;11.510;2023-11-22T06:36:37;8.47;;;2.37;;
6117;SDS011;3089;48.202;11.510;2023-11-22T06:39:05;4.53;;;2.40;;
6117;SDS011;3089;48.202;11.510;2023-11-22T06:41:35;5.53;;;2.07;;
6117;SDS011;3089;48.202;11.510;2023-11-22T06:44:05;4.33;;;2.17;;
6117;SDS011;3089;48.202;11.510;2023-11-22T06:46:33;4.10;;;1.97;;
6117;SDS011;3089;48.202;11.510;2023-11-22T06:49:01;4.47;;;2.20;;
6117;SDS011;3089;48.202;11.510;2023-11-22T06:51:29;3.80;;;1.77;;
6117;SDS011;3089;48.202;11.510;2023-11-22T06:53:57;4.50;;;2.13;;
6117;SDS011;3089;48.202;11.510;2023-11-22T06:56:27;4.13;;;2.37;;
6117;SDS011;3089;48.202;11.510;2023-11-22T06:58:55;4.93;;;1.90;;
6117;SDS011;3089;48.202;11.510;2023-11-22T07:01:25;4.30;;;2.40;;
6117;SDS011;3089;48.202;11.510;2023-11-22T07:03:53;4.30;;;2.30;;
6117;SDS011;3089;48.202;11.510;2023-11-22T07:06:21;4.73;;;2.27;;
6117;SDS011;3089;48.202;11.510;2023-11-22T07:08:49;7.20;;;3.00;;
6117;SDS011;3089;48.202;11.510;2023-11-22T07:11:23;4.97;;;2.53;;
6117;SDS011;3089;48.202;11.510;2023-11-22T07:13:52;5.27;;;2.97;;
6117;SDS011;3089;48.202;11.510;2023-11-22T07:16:20;4.80;;;2.57;;
6117;SDS011;3089;48.202;11.510;2023-11-22T07:18:50;7.83;;;3.00;;
6117;SDS011;3089;48.202;11.510;2023-11-22T07:21:18;5.60;;;2.90;;
6117;SDS011;3089;48.202;11.510;2023-11-22T07:23:46;5.23;;;2.67;;
6117;SDS011;3089;48.202;11.510;2023-11-22T07:26:18;5.13;;;2.83;;
6117;SDS011;3089;48.202;11.510;2023-11-22T07:28:46;4.40;;;2.37;;
6117;SDS011;3089;48.202;11.510;2023-11-22T07:31:14;6.40;;;2.93;;
6117;SDS011;3089;48.202;11.510;2023-11-22T07:33:43;5.60;;;2.63;;
6117;SDS011;3089;48.202;11.510;2023-11-22T07:36:12;5.13;;;2.83;;
6117;SDS011;3089;48.202;11.510;2023-11-22T07:38:41;5.47;;;3.33;;
6117;SDS011;3089;48.202;11.510;2023-11-22T07:41:10;7.10;;;3.03;;
6117;SDS011;3089;48.202;11.510;2023-11-22T07:43:38;5.67;;;3.30;;
6117;SDS011;3089;48.202;11.510;2023-11-22T07:46:06;7.50;;;3.53;;
6117;SDS011;3089;48.202;11.510;2023-11-22T07:48:38;6.13;;;3.70;;
6117;SDS011;3089;48.202;11.510;2023-11-22T07:51:07;6.33;;;2.70;;
6117;SDS011;3089;48.202;11.510;2023-11-22T07:53:36;6.90;;;3.50;;
6117;SDS011;3089;48.202;11.510;2023-11-22T07:56:06;6.17;;;3.20;;
6117;SDS011;3089;48.202;11.510;2023-11-22T07:58:34;6.90;;;4.00;;
6117;SDS011;3089;48.202;11.510;2023-11-22T08:01:03;8.80;;;3.77;;
6117;SDS011;3089;48.202;11.510;2023-11-22T08:03:32;6.17;;;3.17;;
6117;SDS011;3089;48.202;11.510;2023-11-22T08:06:01;6.70;;;3.23;;
6117;SDS011;3089;48.202;11.510;2023-11-22T08:08:31;5.40;;;3.07;;
6117;SDS011;3089;48.202;11.510;2023-11-22T08:11:02;5.33;;;3.20;;
6117;SDS011;3089;48.202;11.510;2023-11-22T08:13:30;6.00;;;2.67;;
6117;SDS011;3089;48.202;11.510;2023-11-22T08:15:58;6.73;;;3.43;;
6117;SDS011;3089;48.202;11.510;2023-11-22T08:18:26;7.47;;;3.40;;
6117;SDS011;3089;48.202;11.510;2023-11-22T08:20:54;6.30;;;2.40;;
6117;SDS011;3089;48.202;11.510;2023-11-22T08:23:22;5.50;;;2.57;;
6117;SDS011;3089;48.202;11.510;2023-11-22T08:25:53;6.30;;;2.90;;
6117;SDS011;3089;48.202;11.510;2023-11-22T08:28:24;5.73;;;3.10;;
6117;SDS011;3089;48.202;11.510;2023-11-22T08:30:52;5.40;;;2.70;;
6117;SDS011;3089;48.202;11.510;2023-11-22T08:33:20;6.50;;;3.20;;
6117;SDS011;3089;48.202;11.510;2023-11-22T08:35:48;4.37;;;2.20;;
6117;SDS011;3089;48.202;11.510;2023-11-22T08:38:24;5.47;;;2.63;;
6117;SDS011;3089;48.202;11.510;2023-11-22T08:40:52;6.40;;;2.60;;
6117;SDS011;3089;48.202;11.510;2023-11-22T08:43:21;6.25;;;2.70;;
6117;SDS011;3089;48.202;11.510;2023-11-22T08:45:53;5.33;;;2.47;;
6117;SDS011;3089;48.202;11.510;2023-11-22T08:48:37;5.10;;;2.75;;
6117;SDS011;3089;48.202;11.510;2023-11-22T08:51:07;5.87;;;3.00;;
6117;SDS011;3089;48.202;11.510;2023-11-22T08:53:36;5.07;;;2.60;;
6117;SDS011;3089;48.202;11.510;2023-11-22T08:56:04;5.47;;;1.87;;
6117;SDS011;3089;48.202;11.510;2023-11-22T08:58:35;5.23;;;2.70;;
6117;SDS011;3089;48.202;11.510;2023-11-22T09:01:04;5.33;;;2.63;;
6117;SDS011;3089;48.202;11.510;2023-11-22T09:03:33;5.53;;;1.93;;
6117;SDS011;3089;48.202;11.510;2023-11-22T09:06:02;4.70;;;2.53;;
6117;SDS011;3089;48.202;11.510;2023-11-22T09:08:30;6.10;;;2.90;;
6117;SDS011;3089;48.202;11.510;2023-11-22T09:10:58;5.27;;;3.00;;
6117;SDS011;3089;48.202;11.510;2023-11-22T09:13:25;4.27;;;2.33;;
6117;SDS011;3089;48.202;11.510;2023-11-22T09:15:56;10.80;;;2.60;;
6117;SDS011;3089;48.202;11.510;2023-11-22T09:18:25;4.50;;;2.30;;
6117;SDS011;3089;48.202;11.510;2023-11-22T09:20:53;4.53;;;2.20;;
6117;SDS011;3089;48.202;11.510;2023-11-22T09:23:21;4.70;;;2.40;;
6117;SDS011;3089;48.202;11.510;2023-11-22T09:25:50;4.57;;;2.17;;
6117;SDS011;3089;48.202;11.510;2023-11-22T09:28:18;4.80;;;2.43;;
6117;SDS011;3089;48.202;11.510;2023-11-22T09:30:46;5.93;;;2.60;;
6117;SDS011;3089;48.202;11.510;2023-11-22T09:33:15;4.17;;;2.00;;
6117;SDS011;3089;48.202;11.510;2023-11-22T09:35:45;5.37;;;2.80;;
6117;SDS011;3089;48.202;11.510;2023-11-22T09:38:14;6.37;;;2.60;;
6117;SDS011;3089;48.202;11.510;2023-11-22T09:40:44;5.63;;;2.80;;
6117;SDS011;3089;48.202;11.510;2023-11-22T09:43:12;5.43;;;2.30;;
6117;SDS011;3089;48.202;11.510;2023-11-22T09:45:44;4.73;;;2.83;;
6117;SDS011;3089;48.202;11.510;2023-11-22T09:48:14;4.73;;;2.53;;
6117;SDS011;3089;48.202;11.510;2023-11-22T09:50:46;5.50;;;2.97;;
6117;SDS011;3089;48.202;11.510;2023-11-22T09:53:22;5.13;;;2.47;;
6117;SDS011;3089;48.202;11.510;2023-11-22T09:55:53;4.77;;;2.10;;
6117;SDS011;3089;48.202;11.510;2023-11-22T09:58:22;4.77;;;2.20;;
6117;SDS011;3089;48.202;11.510;2023-11-22T10:00:50;3.73;;;1.90;;
6117;SDS011;3089;48.202;11.510;2023-11-22T10:03:19;4.47;;;2.10;;
6117;SDS011;3089;48.202;11.510;2023-11-22T10:05:49;6.07;;;2.70;;
6117;SDS011;3089;48.202;11.510;2023-11-22T10:08:18;4.53;;;2.27;;
6117;SDS011;3089;48.202;11.510;2023-11-22T10:10:48;5.10;;;2.50;;
6117;SDS011;3089;48.202;11.510;2023-11-22T10:13:17;4.60;;;2.30;;
6117;SDS011;3089;48.202;11.510;2023-11-22T10:15:46;4.97;;;2.43;;
6117;SDS011;3089;48.202;11.510;2023-11-22T10:18:15;4.87;;;2.50;;
6117;SDS011;3089;48.202;11.510;2023-11-22T10:20:45;5.33;;;2.60;;
6117;SDS011;3089;48.202;11.510;2023-11-22T10:23:15;4.60;;;2.47;;
6117;SDS011;3089;48.202;11.510;2023-11-22T10:25:46;6.07;;;2.60;;
6117;SDS011;3089;48.202;11.510;2023-11-22T10:28:15;5.70;;;2.63;;
6117;SDS011;3089;48.202;11.510;2023-11-22T10:30:45;4.70;;;2.33;;
6117;SDS011;3089;48.202;11.510;2023-11-22T10:33:14;3.97;;;2.20;;
6117;SDS011;3089;48.202;11.510;2023-11-22T10:35:42;3.60;;;1.90;;
6117;SDS011;3089;48.202;11.510;2023-11-22T10:38:14;5.47;;;3.10;;
6117;SDS011;3089;48.202;11.510;2023-11-22T10:40:42;4.90;;;2.53;;
6117;SDS011;3089;48.202;11.510;2023-11-22T10:43:11;4.83;;;2.30;;
6117;SDS011;3089;48.202;11.510;2023-11-22T10:45:39;4.73;;;2.60;;
6117;SDS011;3089;48.202;11.510;2023-11-22T10:48:12;5.93;;;2.80;;
6117;SDS011;3089;48.202;11.510;2023-11-22T10:50:43;5.70;;;2.00;;
6117;SDS011;3089;48.202;11.510;2023-11-22T10:53:12;4.50;;;2.50;;
6117;SDS011;3089;48.202;11.510;2023-11-22T10:55:44;6.20;;;2.80;;
6117;SDS011;3089;48.202;11.510;2023-11-22T10:58:13;4.90;;;2.60;;
6117;SDS011;3089;48.202;11.510;2023-11-22T11:00:43;6.13;;;2.87;;
6117;SDS011;3089;48.202;11.510;2023-11-22T11:03:17;5.00;;;2.73;;
6117;SDS011;3089;48.202;11.510;2023-11-22T11:05:48;5.00;;;2.60;;
6117;SDS011;3089;48.202;11.510;2023-11-22T11:08:19;4.37;;;2.57;;
6117;SDS011;3089;48.202;11.510;2023-11-22T11:10:49;5.40;;;3.00;;
6117;SDS011;3089;48.202;11.510;2023-11-22T11:13:17;5.53;;;2.60;;
6117;SDS011;3089;48.202;11.510;2023-11-22T11:15:45;4.00;;;2.10;;
6117;SDS011;3089;48.202;11.510;2023-11-22T11:18:14;4.70;;;2.43;;
6117;SDS011;3089;48.202;11.510;2023-11-22T11:20:48;5.70;;;2.83;;
6117;SDS011;3089;48.202;11.510;2023-11-22T11:23:17;4.80;;;2.23;;
6117;SDS011;3089;48.202;11.510;2023-11-22T11:25:47;4.50;;;2.50;;
6117;SDS011;3089;48.202;11.510;2023-11-22T11:28:16;6.27;;;2.80;;
6117;SDS011;3089;48.202;11.510;2023-11-22T11:30:46;4.73;;;2.30;;
6117;SDS011;3089;48.202;11.510;2023-11-22T11:33:15;4.27;;;2.37;;
6117;SDS011;3089;48.202;11.510;2023-11-22T11:35:46;4.60;;;2.40;;
6117;SDS011;3089;48.202;11.510;2023-11-22T11:38:16;4.60;;;2.40;;
6117;SDS011;3089;48.202;11.510;2023-11-22T11:40:48;6.20;;;2.57;;
6117;SDS011;3089;48.202;11.510;2023-11-22T11:43:21;5.30;;;3.30;;
6117;SDS011;3089;48.202;11.510;2023-11-22T11:46:07;4.23;;;2.33;;
6117;SDS011;3089;48.202;11.510;2023-11-22T11:48:35;5.00;;;2.73;;
6117;SDS011;3089;48.202;11.510;2023-11-22T11:51:03;5.23;;;3.13;;
6117;SDS011;3089;48.202;11.510;2023-11-22T11:53:33;4.70;;;2.63;;
6117;SDS011;3089;48.202;11.510;2023-11-22T11:56:01;3.53;;;2.00;;
6117;SDS011;3089;48.202;11.510;2023-11-22T11:58:30;4.80;;;2.67;;
6117;SDS011;3089;48.202;11.510;2023-11-22T12:00:58;4.97;;;2.47;;
6117;SDS011;3089;48.202;11.510;2023-11-22T12:03:27;4.10;;;2.30;;
6117;SDS011;3089;48.202;11.510;2023-11-22T12:05:55;4.37;;;2.43;;
6117;SDS011;3089;48.202;11.510;2023-11-22T12:08:23;3.63;;;1.90;;
6117;SDS011;3089;48.202;11.510;2023-11-22T12:10:55;5.10;;;2.10;;
6117;SDS011;3089;48.202;11.510;2023-11-22T12:13:25;4.47;;;2.40;;
6117;SDS011;3089;48.202;11.510;2023-11-22T12:15:54;4.97;;;2.60;;
6117;SDS011;3089;48.202;11.510;2023-11-22T12:18:22;5.93;;;2.90;;
6117;SDS011;3089;48.202;11.510;2023-11-22T12:20:54;4.77;;;2.73;;
6117;SDS011;3089;48.202;11.510;2023-11-22T12:23:23;5.03;;;2.50;;
6117;SDS011;3089;48.202;11.510;2023-11-22T12:25:54;6.10;;;3.30;;
6117;SDS011;3089;48.202;11.510;2023-11-22T12:28:23;3.53;;;2.30;;
6117;SDS011;3089;48.202;11.510;2023-11-22T12:30:54;9.93;;;3.17;;
6117;SDS011;3089;48.202;11.510;2023-11-22T12:33:22;4.67;;;2.80;;
6117;SDS011;3089;48.202;11.510;2023-11-22T12:35:50;5.60;;;2.93;;
6117;SDS011;3089;48.202;11.510;2023-11-22T12:38:20;4.50;;;2.50;;
6117;SDS011;3089;48.202;11.510;2023-11-22T12:40:48;4.73;;;2.20;;
6117;SDS011;3089;48.202;11.510;2023-11-22T12:43:16;7.23;;;2.70;;
6117;SDS011;3089;48.202;11.510;2023-11-22T12:45:43;4.50;;;2.40;;
6117;SDS011;3089;48.202;11.510;2023-11-22T12:48:20;4.70;;;2.43;;
6117;SDS011;3089;48.202;11.510;2023-11-22T12:50:51;4.57;;;2.50;;
6117;SDS011;3089;48.202;11.510;2023-11-22T12:53:20;4.60;;;2.40;;
6117;SDS011;3089;48.202;11.510;2023-11-22T12:55:49;3.93;;;2.00;;
6117;SDS011;3089;48.202;11.510;2023-11-22T12:58:18;4.90;;;2.57;;
6117;SDS011;3089;48.202;11.510;2023-11-22T13:00:47;4.97;;;2.77;;
6117;SDS011;3089;48.202;11.510;2023-11-22T13:03:16;4.43;;;2.23;;
6117;SDS011;3089;48.202;11.510;2023-11-22T13:05:46;4.73;;;2.50;;
6117;SDS011;3089;48.202;11.510;2023-11-22T13:08:14;4.27;;;2.27;;
6117;SDS011;3089;48.202;11.510;2023-11-22T13:10:43;4.30;;;2.20;;
6117;SDS011;3089;48.202;11.510;2023-11-22T13:13:13;4.10;;;2.27;;
6117;SDS011;3089;48.202;11.510;2023-11-22T13:15:41;3.70;;;1.80;;
6117;SDS011;3089;48.202;11.510;2023-11-22T13:18:09;4.13;;;2.20;;
6117;SDS011;3089;48.202;11.510;2023-11-22T13:20:38;6.80;;;2.80;;
6117;SDS011;3089;48.202;11.510;2023-11-22T13:23:08;3.70;;;2.00;;
6117;SDS011;3089;48.202;11.510;2023-11-22T13:25:36;4.63;;;2.00;;
6117;SDS011;3089;48.202;11.510;2023-11-22T13:28:04;5.40;;;2.30;;
6117;SDS011;3089;48.202;11.510;2023-11-22T13:30:33;4.53;;;1.70;;
6117;SDS011;3089;48.202;11.510;2023-11-22T13:33:00;4.77;;;2.30;;
6117;SDS011;3089;48.202;11.510;2023-11-22T13:35:29;5.93;;;2.60;;
6117;SDS011;3089;48.202;11.510;2023-11-22T13:37:58;4.90;;;2.63;;
6117;SDS011;3089;48.202;11.510;2023-11-22T13:40:29;5.37;;;2.80;;
6117;SDS011;3089;48.202;11.510;2023-11-22T13:42:57;5.30;;;2.60;;
6117;SDS011;3089;48.202;11.510;2023-11-22T13:45:26;4.00;;;2.07;;
6117;SDS011;3089;48.202;11.510;2023-11-22T13:47:55;5.90;;;2.90;;
6117;SDS011;3089;48.202;11.510;2023-11-22T13:50:30;5.47;;;2.63;;
6117;SDS011;3089;48.202;11.510;2023-11-22T13:52:58;6.47;;;2.83;;
6117;SDS011;3089;48.202;11.510;2023-11-22T13:55:26;6.00;;;2.90;;
6117;SDS011;3089;48.202;11.510;2023-11-22T13:57:56;3.90;;;2.20;;
6117;SDS011;3089;48.202;11.510;2023-11-22T14:00:25;3.90;;;2.30;;
6117;SDS011;3089;48.202;11.510;2023-11-22T14:02:58;5.50;;;2.80;;
6117;SDS011;3089;48.202;11.510;2023-11-22T14:05:32;5.00;;;2.57;;
6117;SDS011;3089;48.202;11.510;2023-11-22T14:08:02;4.23;;;2.47;;
6117;SDS011;3089;48.202;11.510;2023-11-22T14:10:32;6.03;;;2.37;;
6117;SDS011;3089;48.202;11.510;2023-11-22T14:13:01;6.37;;;2.47;;
6117;SDS011;3089;48.202;11.510;2023-11-22T14:15:31;4.97;;;2.23;;
6117;SDS011;3089;48.202;11.510;2023-11-22T14:17:59;4.60;;;2.10;;
6117;SDS011;3089;48.202;11.510;2023-11-22T14:20:27;4.60;;;2.70;;
6117;SDS011;3089;48.202;11.510;2023-11-22T14:22:56;4.10;;;2.23;;
6117;SDS011;3089;48.202;11.510;2023-11-22T14:25:23;5.87;;;2.70;;
6117;SDS011;3089;48.202;11.510;2023-11-22T14:27:52;6.13;;;2.70;;
6117;SDS011;3089;48.202;11.510;2023-11-22T14:30:24;5.47;;;2.80;;
6117;SDS011;3089;48.202;11.510;2023-11-22T14:32:55;5.23;;;3.17;;
6117;SDS011;3089;48.202;11.510;2023-11-22T14:35:25;5.03;;;2.77;;
6117;SDS011;3089;48.202;11.510;2023-11-22T14:37:53;7.10;;;2.87;;
6117;SDS011;3089;48.202;11.510;2023-11-22T14:40:24;8.00;;;3.00;;
6117;SDS011;3089;48.202;11.510;2023-11-22T14:42:52;4.60;;;2.30;;
6117;SDS011;3089;48.202;11.510;2023-11-22T14:45:20;5.40;;;2.60;;
6117;SDS011;3089;48.202;11.510;2023-11-22T14:47:49;4.63;;;2.50;;
6117;SDS011;3089;48.202;11.510;2023-11-22T14:50:18;4.30;;;2.10;;
6117;SDS011;3089;48.202;11.510;2023-11-22T14:52:47;4.37;;;2.33;;
6117;SDS011;3089;48.202;11.510;2023-11-22T14:55:16;4.47;;;2.23;;
6117;SDS011;3089;48.202;11.510;2023-11-22T14:57:46;3.73;;;1.97;;
6117;SDS011;3089;48.202;11.510;2023-11-22T15:00:16;4.47;;;2.27;;
6117;SDS011;3089;48.202;11.510;2023-11-22T15:02:45;3.60;;;2.00;;
6117;SDS011;3089;48.202;11.510;2023-11-22T15:05:17;4.10;;;2.20;;
6117;SDS011;3089;48.202;11.510;2023-11-22T15:07:45;4.20;;;2.10;;
6117;SDS011;3089;48.202;11.510;2023-11-22T15:10:13;6.03;;;2.37;;